sensor_id;sensor_type;location;lat;lon;timestamp;pressure;altitude;pressure_sealevel;temperature;humidity
13080;BME280;6606;49.154;9.280;2023-04-06T00:01:42;99977.91;;;0.36;100.00
13080;BME280;6606;49.154;9.280;2023-04-06T00:04:25;99970.09;;;0.33;100.00
13080;BME280;6606;49.154;9.280;2023-04-06T00:07:11;99970.13;;;0.30;100.00
13080;BME280;6606;49.154;9.280;2023-04-06T00:09:53;99969.25;;;0.28;100.00
13080;BME280;6606;49.154;9.280;2023-04-06T00:12:34;99969.25;;;0.28;100.00
13080;BME280;6606;49.154;9.280;2023-04-06T00:15:16;99968.41;;;0.25;100.00
13080;BME280;6606;49.154;9.280;2023-04-06T00:17:58;99970.16;;;0.24;100.00
13080;BME280;6606;49.154;9.280;2023-04-06T00:20:40;99968.41;;;0.20;100.00
13080;BME280;6606;49.154;9.280;2023-04-06T00:23:23;99969.28;;;0.22;100.00
13080;BME280;6606;49.154;9.280;2023-04-06T00:26:05;99962.34;;;0.19;100.00
13080;BME280;6606;49.154;9.280;2023-04-06T00:28:47;99965.81;;;0.20;100.00
13080;BME280;6606;49.154;9.280;2023-04-06T00:31:30;99959.78;;;0.13;100.00
13080;BME280;6606;49.154;9.280;2023-04-06T00:34:12;99959.78;;;0.13;100.00
13080;BME280;6606;49.154;9.280;2023-04-06T00:36:55;99957.16;;;0.13;100.00
13080;BME280;6606;49.154;9.280;2023-04-06T00:39:39;99951.94;;;0.12;100.00
13080;BME280;6606;49.154;9.280;2023-04-06T00:42:22;99956.28;;;0.13;100.00
13080;BME280;6606;49.154;9.280;2023-04-06T00:45:07;99946.72;;;0.12;100.00
13080;BME280;6606;49.154;9.280;2023-04-06T00:47:49;99946.75;;;0.09;100.00
13080;BME280;6606;49.154;9.280;2023-04-06T00:50:31;99942.38;;;0.08;100.00
13080;BME280;6606;49.154;9.280;2023-04-06T00:53:13;99944.16;;;0.06;100.00
13080;BME280;6606;49.154;9.280;2023-04-06T00:55:57;99945.03;;;0.02;100.00
13080;BME280;6606;49.154;9.280;2023-04-06T00:58:39;99936.34;;;-0.01;100.00
13080;BME280;6606;49.154;9.280;2023-04-06T01:01:23;99940.72;;;-0.04;100.00
13080;BME280;6606;49.154;9.280;2023-04-06T01:04:08;99935.50;;;-0.07;100.00
13080;BME280;6606;49.154;9.280;2023-04-06T01:06:55;99929.44;;;-0.17;100.00
13080;BME280;6606;49.154;9.280;2023-04-06T01:09:41;99932.94;;;-0.18;100.00
13080;BME280;6606;49.154;9.280;2023-04-06T01:12:32;99933.78;;;-0.11;100.00
13080;BME280;6606;49.154;9.280;2023-04-06T01:15:17;99929.44;;;-0.14;100.00
13080;BME280;6606;49.154;9.280;2023-04-06T01:18:04;99934.66;;;-0.14;100.00
13080;BME280;6606;49.154;9.280;2023-04-06T01:20:47;99929.41;;;-0.11;100.00
13080;BME280;6606;49.154;9.280;2023-04-06T01:23:32;99936.38;;;-0.10;100.00
13080;BME280;6606;49.154;9.280;2023-04-06T01:26:14;99935.53;;;-0.15;100.00
13080;BME280;6606;49.154;9.280;2023-04-06T01:28:57;99932.94;;;-0.18;100.00
13080;BME280;6606;49.154;9.280;2023-04-06T01:31:43;99926.00;;;-0.25;100.00
13080;BME280;6606;49.154;9.280;2023-04-06T01:34:25;99917.31;;;-0.27;100.00
13080;BME280;6606;49.154;9.280;2023-04-06T01:37:08;99914.72;;;-0.26;100.00
13080;BME280;6606;49.154;9.280;2023-04-06T01:39:53;99921.66;;;-0.28;100.00
13080;BME280;6606;49.154;9.280;2023-04-06T01:42:50;99915.59;;;-0.37;100.00
13080;BME280;6606;49.154;9.280;2023-04-06T01:45:40;99920.81;;;-0.36;100.00
13080;BME280;6606;49.154;9.280;2023-04-06T01:48:30;99921.69;;;-0.41;100.00
13080;BME280;6606;49.154;9.280;2023-04-06T01:51:12;99924.31;;;-0.54;100.00
13080;BME280;6606;49.154;9.280;2023-04-06T01:54:02;99912.19;;;-0.50;100.00
13080;BME280;6606;49.154;9.280;2023-04-06T01:56:55;99924.31;;;-0.48;100.00
13080;BME280;6606;49.154;9.280;2023-04-06T01:59:51;99927.78;;;-0.50;100.00
13080;BME280;6606;49.154;9.280;2023-04-06T02:02:43;99918.22;;;-0.48;100.00
13080;BME280;6606;49.154;9.280;2023-04-06T02:05:33;99920.84;;;-0.56;100.00
13080;BME280;6606;49.154;9.280;2023-04-06T02:08:19;99928.66;;;-0.59;100.00
13080;BME280;6606;49.154;9.280;2023-04-06T02:11:01;99921.75;;;-0.66;100.00
13080;BME280;6606;49.154;9.280;2023-04-06T02:13:54;99920.84;;;-0.59;100.00
13080;BME280;6606;49.154;9.280;2023-04-06T02:16:40;99917.38;;;-0.55;100.00
13080;BME280;6606;49.154;9.280;2023-04-06T02:19:21;99920.84;;;-0.53;100.00
13080;BME280;6606;49.154;9.280;2023-04-06T02:22:03;99916.50;;;-0.54;100.00
13080;BME280;6606;49.154;9.280;2023-04-06T02:24:47;99922.56;;;-0.49;100.00
13080;BME280;6606;49.154;9.280;2023-04-06T02:27:28;99913.00;;;-0.45;100.00
13080;BME280;6606;49.154;9.280;2023-04-06T02:30:15;99910.41;;;-0.40;100.00
13080;BME280;6606;49.154;9.280;2023-04-06T02:32:57;99908.66;;;-0.38;100.00
13080;BME280;6606;49.154;9.280;2023-04-06T02:35:39;99910.41;;;-0.34;100.00
13080;BME280;6606;49.154;9.280;2023-04-06T02:38:21;99911.25;;;-0.31;100.00
13080;BME280;6606;49.154;9.280;2023-04-06T02:41:05;99905.19;;;-0.31;100.00
13080;BME280;6606;49.154;9.280;2023-04-06T02:43:47;99908.63;;;-0.29;100.00
13080;BME280;6606;49.154;9.280;2023-04-06T02:46:38;99906.91;;;-0.27;100.00
13080;BME280;6606;49.154;9.280;2023-04-06T02:49:20;99902.56;;;-0.30;100.00
13080;BME280;6606;49.154;9.280;2023-04-06T02:52:03;99907.78;;;-0.31;100.00
13080;BME280;6606;49.154;9.280;2023-04-06T02:54:48;99906.06;;;-0.35;100.00
13080;BME280;6606;49.154;9.280;2023-04-06T02:57:37;99896.53;;;-0.36;100.00
13080;BME280;6606;49.154;9.280;2023-04-06T03:00:20;99900.84;;;-0.38;100.00
13080;BME280;6606;49.154;9.280;2023-04-06T03:03:03;99896.53;;;-0.46;100.00
13080;BME280;6606;49.154;9.280;2023-04-06T03:05:48;99898.28;;;-0.54;100.00
13080;BME280;6606;49.154;9.280;2023-04-06T03:08:34;99901.75;;;-0.55;100.00
13080;BME280;6606;49.154;9.280;2023-04-06T03:11:16;99900.03;;;-0.62;100.00
13080;BME280;6606;49.154;9.280;2023-04-06T03:13:59;99898.31;;;-0.66;100.00
13080;BME280;6606;49.154;9.280;2023-04-06T03:16:41;99899.19;;;-0.69;100.00
13080;BME280;6606;49.154;9.280;2023-04-06T03:19:24;99910.47;;;-0.71;100.00
13080;BME280;6606;49.154;9.280;2023-04-06T03:22:07;99907.84;;;-0.71;100.00
13080;BME280;6606;49.154;9.280;2023-04-06T03:24:52;99907.84;;;-0.67;100.00
13080;BME280;6606;49.154;9.280;2023-04-06T03:27:34;99910.44;;;-0.74;100.00
13080;BME280;6606;49.154;9.280;2023-04-06T03:30:18;99905.25;;;-0.80;100.00
13080;BME280;6606;49.154;9.280;2023-04-06T03:33:00;99905.25;;;-0.80;100.00
13080;BME280;6606;49.154;9.280;2023-04-06T03:35:47;99908.72;;;-0.89;100.00
13080;BME280;6606;49.154;9.280;2023-04-06T03:38:30;99908.72;;;-0.83;100.00
13080;BME280;6606;49.154;9.280;2023-04-06T03:41:15;99911.31;;;-0.80;100.00
13080;BME280;6606;49.154;9.280;2023-04-06T03:44:05;99916.53;;;-0.84;100.00
13080;BME280;6606;49.154;9.280;2023-04-06T03:46:47;99919.13;;;-0.88;100.00
13080;BME280;6606;49.154;9.280;2023-04-06T03:49:31;99920.00;;;-0.92;100.00
13080;BME280;6606;49.154;9.280;2023-04-06T03:52:15;99915.66;;;-0.90;100.00
13080;BME280;6606;49.154;9.280;2023-04-06T03:54:58;99919.13;;;-0.88;100.00
13080;BME280;6606;49.154;9.280;2023-04-06T03:57:39;99917.41;;;-0.89;100.00
13080;BME280;6606;49.154;9.280;2023-04-06T04:00:22;99922.59;;;-0.95;100.00
13080;BME280;6606;49.154;9.280;2023-04-06T04:03:04;99921.72;;;-0.88;100.00
13080;BME280;6606;49.154;9.280;2023-04-06T04:05:46;99916.50;;;-0.88;100.00
13080;BME280;6606;49.154;9.280;2023-04-06T04:08:29;99920.00;;;-0.85;100.00
13080;BME280;6606;49.154;9.280;2023-04-06T04:11:10;99921.72;;;-0.98;100.00
13080;BME280;6606;49.154;9.280;2023-04-06T04:13:53;99924.34;;;-1.00;100.00
13080;BME280;6606;49.154;9.280;2023-04-06T04:16:36;99924.31;;;-1.06;100.00
13080;BME280;6606;49.154;9.280;2023-04-06T04:19:19;99933.00;;;-1.07;100.00
13080;BME280;6606;49.154;9.280;2023-04-06T04:22:01;99931.28;;;-1.11;100.00
13080;BME280;6606;49.154;9.280;2023-04-06T04:24:49;99928.66;;;-1.03;100.00
13080;BME280;6606;49.154;9.280;2023-04-06T04:27:31;99930.41;;;-1.08;100.00
13080;BME280;6606;49.154;9.280;2023-04-06T04:30:13;99931.28;;;-1.11;100.00
13080;BME280;6606;49.154;9.280;2023-04-06T04:32:56;99929.50;;;-1.12;100.00
13080;BME280;6606;49.154;9.280;2023-04-06T04:35:38;99932.13;;;-1.14;100.00
13080;BME280;6606;49.154;9.280;2023-04-06T04:38:21;99934.72;;;-1.09;100.00
13080;BME280;6606;49.154;9.280;2023-04-06T04:41:08;99931.25;;;-1.08;100.00
13080;BME280;6606;49.154;9.280;2023-04-06T04:43:52;99935.59;;;-1.07;100.00
13080;BME280;6606;49.154;9.280;2023-04-06T04:46:37;99935.59;;;-1.07;100.00
13080;BME280;6606;49.154;9.280;2023-04-06T04:49:20;99925.19;;;-1.05;100.00
13080;BME280;6606;49.154;9.280;2023-04-06T04:52:04;99929.50;;;-1.06;100.00
13080;BME280;6606;49.154;9.280;2023-04-06T04:54:55;99934.72;;;-1.04;100.00
13080;BME280;6606;49.154;9.280;2023-04-06T04:57:42;99939.06;;;-1.08;100.00
13080;BME280;6606;49.154;9.280;2023-04-06T05:00:24;99939.03;;;-1.17;100.00
13080;BME280;6606;49.154;9.280;2023-04-06T05:03:14;99940.81;;;-1.05;100.00
13080;BME280;6606;49.154;9.280;2023-04-06T05:06:00;99946.88;;;-0.99;100.00
13080;BME280;6606;49.154;9.280;2023-04-06T05:08:45;99939.94;;;-0.98;100.00
13080;BME280;6606;49.154;9.280;2023-04-06T05:11:27;99950.34;;;-0.91;100.00
13080;BME280;6606;49.154;9.280;2023-04-06T05:14:15;99950.38;;;-0.84;100.00
13080;BME280;6606;49.154;9.280;2023-04-06T05:16:58;99957.28;;;-0.77;100.00
13080;BME280;6606;49.154;9.280;2023-04-06T05:19:41;99957.31;;;-0.71;100.00
13080;BME280;6606;49.154;9.280;2023-04-06T05:22:23;99960.75;;;-0.69;100.00
13080;BME280;6606;49.154;9.280;2023-04-06T05:25:15;99955.53;;;-0.58;100.00
13080;BME280;6606;49.154;9.280;2023-04-06T05:27:58;99968.56;;;-0.51;100.00
13080;BME280;6606;49.154;9.280;2023-04-06T05:30:45;99964.22;;;-0.44;100.00
13080;BME280;6606;49.154;9.280;2023-04-06T05:33:28;99965.09;;;-0.36;100.00
13080;BME280;6606;49.154;9.280;2023-04-06T05:36:20;99965.94;;;-0.26;100.00
13080;BME280;6606;49.154;9.280;2023-04-06T05:39:02;99977.19;;;-0.19;100.00
13080;BME280;6606;49.154;9.280;2023-04-06T05:42:03;99964.16;;;-0.09;100.00
13080;BME280;6606;49.154;9.280;2023-04-06T05:45:04;99967.63;;;0.01;100.00
13080;BME280;6606;49.154;9.280;2023-04-06T05:47:51;99968.47;;;0.06;100.00
13080;BME280;6606;49.154;9.280;2023-04-06T05:50:38;99971.91;;;0.14;100.00
13080;BME280;6606;49.154;9.280;2023-04-06T05:53:20;99977.97;;;0.27;100.00
13080;BME280;6606;49.154;9.280;2023-04-06T05:56:08;99970.13;;;0.35;100.00
13080;BME280;6606;49.154;9.280;2023-04-06T05:58:50;99977.91;;;0.42;100.00
13080;BME280;6606;49.154;9.280;2023-04-06T06:01:38;99972.59;;;0.58;100.00
13080;BME280;6606;49.154;9.280;2023-04-06T06:04:22;99980.38;;;0.70;100.00
13080;BME280;6606;49.154;9.280;2023-04-06T06:07:07;99976.81;;;0.82;100.00
13080;BME280;6606;49.154;9.280;2023-04-06T06:09:58;99977.69;;;0.85;100.00
13080;BME280;6606;49.154;9.280;2023-04-06T06:12:49;99982.97;;;0.73;100.00
13080;BME280;6606;49.154;9.280;2023-04-06T06:15:31;99986.34;;;0.94;100.00
13080;BME280;6606;49.154;9.280;2023-04-06T06:18:13;99981.91;;;1.06;100.00
13080;BME280;6606;49.154;9.280;2023-04-06T06:20:56;99979.09;;;1.29;100.00
13080;BME280;6606;49.154;9.280;2023-04-06T06:23:41;99982.47;;;1.47;100.00
13080;BME280;6606;49.154;9.280;2023-04-06T06:26:24;99976.34;;;1.51;100.00
13080;BME280;6606;49.154;9.280;2023-04-06T06:29:06;99981.47;;;1.62;100.00
13080;BME280;6606;49.154;9.280;2023-04-06T06:31:51;99980.41;;;1.80;100.00
13080;BME280;6606;49.154;9.280;2023-04-06T06:34:37;99980.31;;;1.93;100.00
13080;BME280;6606;49.154;9.280;2023-04-06T06:37:23;99978.44;;;2.03;100.00
13080;BME280;6606;49.154;9.280;2023-04-06T06:40:07;99982.81;;;2.04;100.00
13080;BME280;6606;49.154;9.280;2023-04-06T06:42:52;99978.44;;;2.05;100.00
13080;BME280;6606;49.154;9.280;2023-04-06T06:45:48;99981.59;;;2.36;100.00
13080;BME280;6606;49.154;9.280;2023-04-06T06:48:30;99979.56;;;2.59;100.00
13080;BME280;6606;49.154;9.280;2023-04-06T06:51:12;99988.88;;;2.77;100.00
13080;BME280;6606;49.154;9.280;2023-04-06T06:53:56;99985.25;;;2.88;100.00
13080;BME280;6606;49.154;9.280;2023-04-06T06:56:38;99985.97;;;3.00;100.00
13080;BME280;6606;49.154;9.280;2023-04-06T06:59:20;99982.31;;;3.11;100.00
13080;BME280;6606;49.154;9.280;2023-04-06T07:02:03;99982.03;;;3.29;100.00
13080;BME280;6606;49.154;9.280;2023-04-06T07:04:47;99992.97;;;3.54;100.00
13080;BME280;6606;49.154;9.280;2023-04-06T07:07:29;99992.84;;;3.63;100.00
13080;BME280;6606;49.154;9.280;2023-04-06T07:10:14;99985.59;;;3.78;100.00
13080;BME280;6606;49.154;9.280;2023-04-06T07:12:56;99980.72;;;4.06;100.00
13080;BME280;6606;49.154;9.280;2023-04-06T07:15:38;99982.94;;;4.27;100.00
13080;BME280;6606;49.154;9.280;2023-04-06T07:18:26;99980.72;;;4.51;100.00
13080;BME280;6606;49.154;9.280;2023-04-06T07:21:08;99978.47;;;5.13;100.00
13080;BME280;6606;49.154;9.280;2023-04-06T07:23:50;99963.09;;;8.98;86.13
13080;BME280;6606;49.154;9.280;2023-04-06T07:26:33;99954.38;;;12.08;59.30
13080;BME280;6606;49.154;9.280;2023-04-06T07:29:15;99960.72;;;13.67;47.05
13080;BME280;6606;49.154;9.280;2023-04-06T07:31:58;99949.50;;;15.07;42.91
13080;BME280;6606;49.154;9.280;2023-04-06T07:34:41;99943.22;;;16.02;37.53
13080;BME280;6606;49.154;9.280;2023-04-06T07:37:23;99950.72;;;16.35;36.96
13080;BME280;6606;49.154;9.280;2023-04-06T07:40:06;99939.78;;;16.64;34.30
13080;BME280;6606;49.154;9.280;2023-04-06T07:42:49;99941.03;;;17.09;35.47
13080;BME280;6606;49.154;9.280;2023-04-06T07:45:31;99946.72;;;17.05;31.74
13080;BME280;6606;49.154;9.280;2023-04-06T07:48:14;99944.22;;;17.87;30.60
13080;BME280;6606;49.154;9.280;2023-04-06T07:51:01;99945.59;;;17.68;31.15
13080;BME280;6606;49.154;9.280;2023-04-06T07:53:43;99938.34;;;18.39;29.95
13080;BME280;6606;49.154;9.280;2023-04-06T07:56:25;99941.03;;;18.39;31.71
13080;BME280;6606;49.154;9.280;2023-04-06T07:59:08;99945.22;;;19.43;29.66
13080;BME280;6606;49.154;9.280;2023-04-06T08:01:51;99941.41;;;19.02;29.35
13080;BME280;6606;49.154;9.280;2023-04-06T08:04:33;99939.56;;;18.92;30.26
13080;BME280;6606;49.154;9.280;2023-04-06T08:07:15;99931.03;;;18.98;29.80
13080;BME280;6606;49.154;9.280;2023-04-06T08:09:56;99938.28;;;18.06;30.83
13080;BME280;6606;49.154;9.280;2023-04-06T08:12:38;99938.72;;;18.46;29.93
13080;BME280;6606;49.154;9.280;2023-04-06T08:15:21;99939.47;;;16.43;32.47
13080;BME280;6606;49.154;9.280;2023-04-06T08:18:03;99943.25;;;14.93;34.17
13080;BME280;6606;49.154;9.280;2023-04-06T08:20:45;99942.81;;;12.75;38.80
13080;BME280;6606;49.154;9.280;2023-04-06T08:23:27;99935.78;;;11.73;44.02
13080;BME280;6606;49.154;9.280;2023-04-06T08:26:09;99951.56;;;11.22;46.49
13080;BME280;6606;49.154;9.280;2023-04-06T08:28:51;99944.50;;;11.04;48.14
13080;BME280;6606;49.154;9.280;2023-04-06T08:31:34;99943.88;;;10.80;49.46
13080;BME280;6606;49.154;9.280;2023-04-06T08:34:16;99939.47;;;10.41;52.26
13080;BME280;6606;49.154;9.280;2023-04-06T08:36:58;99938.03;;;10.53;52.86
13080;BME280;6606;49.154;9.280;2023-04-06T08:39:40;99943.16;;;10.37;55.46
13080;BME280;6606;49.154;9.280;2023-04-06T08:42:25;99945.56;;;10.23;56.90
13080;BME280;6606;49.154;9.280;2023-04-06T08:45:08;99940.00;;;10.29;56.58
13080;BME280;6606;49.154;9.280;2023-04-06T08:47:52;99933.38;;;10.58;56.18
13080;BME280;6606;49.154;9.280;2023-04-06T08:50:35;99941.47;;;10.74;52.55
13080;BME280;6606;49.154;9.280;2023-04-06T08:53:17;99932.53;;;10.57;53.30
13080;BME280;6606;49.154;9.280;2023-04-06T08:56:00;99943.06;;;10.78;51.24
13080;BME280;6606;49.154;9.280;2023-04-06T08:58:43;99942.19;;;10.96;51.74
13080;BME280;6606;49.154;9.280;2023-04-06T09:01:26;99935.47;;;10.51;53.00
13080;BME280;6606;49.154;9.280;2023-04-06T09:04:10;99932.91;;;10.88;51.66
13080;BME280;6606;49.154;9.280;2023-04-06T09:06:52;99931.84;;;11.45;47.92
13080;BME280;6606;49.154;9.280;2023-04-06T09:09:34;99920.00;;;11.70;46.92
13080;BME280;6606;49.154;9.280;2023-04-06T09:12:23;99923.75;;;11.66;44.87
13080;BME280;6606;49.154;9.280;2023-04-06T09:15:05;99916.63;;;11.84;45.89
13080;BME280;6606;49.154;9.280;2023-04-06T09:17:47;99922.69;;;10.97;47.88
13080;BME280;6606;49.154;9.280;2023-04-06T09:20:31;99915.63;;;11.69;47.51
13080;BME280;6606;49.154;9.280;2023-04-06T09:23:17;99911.41;;;11.65;45.92
13080;BME280;6606;49.154;9.280;2023-04-06T09:26:07;99910.00;;;11.75;46.70
13080;BME280;6606;49.154;9.280;2023-04-06T09:28:50;99911.41;;;11.82;47.86
13080;BME280;6606;49.154;9.280;2023-04-06T09:31:32;99909.34;;;12.22;45.45
13080;BME280;6606;49.154;9.280;2023-04-06T09:34:20;99903.16;;;12.22;43.47
13080;BME280;6606;49.154;9.280;2023-04-06T09:37:13;99895.94;;;12.08;43.03
13080;BME280;6606;49.154;9.280;2023-04-06T09:40:02;99897.50;;;12.12;44.35
13080;BME280;6606;49.154;9.280;2023-04-06T09:42:46;99899.06;;;11.81;42.46
13080;BME280;6606;49.154;9.280;2023-04-06T09:45:29;99893.75;;;12.32;42.47
13080;BME280;6606;49.154;9.280;2023-04-06T09:48:11;99900.06;;;12.47;40.52
13080;BME280;6606;49.154;9.280;2023-04-06T09:50:59;99888.66;;;12.45;40.79
13080;BME280;6606;49.154;9.280;2023-04-06T09:53:44;99887.09;;;12.72;39.17
13080;BME280;6606;49.154;9.280;2023-04-06T09:56:34;99891.72;;;13.16;39.45
13080;BME280;6606;49.154;9.280;2023-04-06T09:59:27;99889.69;;;12.90;39.84
13080;BME280;6606;49.154;9.280;2023-04-06T10:02:20;99884.88;;;12.81;39.41
13080;BME280;6606;49.154;9.280;2023-04-06T10:05:09;99879.06;;;12.58;38.70
13080;BME280;6606;49.154;9.280;2023-04-06T10:07:53;99890.97;;;12.83;39.80
13080;BME280;6606;49.154;9.280;2023-04-06T10:10:37;99887.47;;;12.82;38.71
13080;BME280;6606;49.154;9.280;2023-04-06T10:13:19;99890.19;;;12.49;38.53
13080;BME280;6606;49.154;9.280;2023-04-06T10:16:01;99885.16;;;12.76;38.26
13080;BME280;6606;49.154;9.280;2023-04-06T10:18:46;99884.41;;;13.36;37.94
13080;BME280;6606;49.154;9.280;2023-04-06T10:21:29;99885.19;;;13.38;37.15
13080;BME280;6606;49.154;9.280;2023-04-06T10:24:12;99883.13;;;13.43;36.64
13080;BME280;6606;49.154;9.280;2023-04-06T10:27:01;99881.00;;;13.64;37.05
13080;BME280;6606;49.154;9.280;2023-04-06T10:29:44;99874.88;;;13.92;33.60
13080;BME280;6606;49.154;9.280;2023-04-06T10:32:32;99880.53;;;13.72;31.54
13080;BME280;6606;49.154;9.280;2023-04-06T10:35:15;99877.41;;;13.03;31.67
13080;BME280;6606;49.154;9.280;2023-04-06T10:38:03;99876.78;;;13.30;31.95
13080;BME280;6606;49.154;9.280;2023-04-06T10:40:45;99879.38;;;13.76;32.14
13080;BME280;6606;49.154;9.280;2023-04-06T10:43:33;99875.34;;;13.99;34.01
13080;BME280;6606;49.154;9.280;2023-04-06T10:46:25;99874.31;;;14.30;32.81
13080;BME280;6606;49.154;9.280;2023-04-06T10:49:10;99879.25;;;14.36;32.42
13080;BME280;6606;49.154;9.280;2023-04-06T10:51:53;99867.28;;;14.29;30.81
13080;BME280;6606;49.154;9.280;2023-04-06T10:54:36;99870.69;;;14.60;29.71
13080;BME280;6606;49.154;9.280;2023-04-06T10:57:27;99866.47;;;14.70;29.91
13080;BME280;6606;49.154;9.280;2023-04-06T11:00:12;99876.16;;;14.85;31.33
13080;BME280;6606;49.154;9.280;2023-04-06T11:02:59;99864.78;;;15.23;31.13
13080;BME280;6606;49.154;9.280;2023-04-06T11:05:43;99867.72;;;15.06;29.19
13080;BME280;6606;49.154;9.280;2023-04-06T11:08:30;99863.97;;;14.81;29.08
13080;BME280;6606;49.154;9.280;2023-04-06T11:11:13;99849.00;;;15.33;28.72
13080;BME280;6606;49.154;9.280;2023-04-06T11:13:57;99859.13;;;14.73;27.34
13080;BME280;6606;49.154;9.280;2023-04-06T11:16:40;99862.84;;;14.71;28.51
13080;BME280;6606;49.154;9.280;2023-04-06T11:19:22;99858.44;;;14.84;28.65
13080;BME280;6606;49.154;9.280;2023-04-06T11:22:07;99854.47;;;14.63;29.50
13080;BME280;6606;49.154;9.280;2023-04-06T11:24:49;99843.25;;;14.43;28.81
13080;BME280;6606;49.154;9.280;2023-04-06T11:27:31;99847.16;;;14.09;28.50
13080;BME280;6606;49.154;9.280;2023-04-06T11:30:13;99847.91;;;13.97;29.32
13080;BME280;6606;49.154;9.280;2023-04-06T11:33:00;99837.19;;;14.27;29.66
13080;BME280;6606;49.154;9.280;2023-04-06T11:35:42;99833.34;;;14.60;29.31
13080;BME280;6606;49.154;9.280;2023-04-06T11:38:24;99830.09;;;14.69;28.51
13080;BME280;6606;49.154;9.280;2023-04-06T11:41:06;99829.97;;;14.70;29.27
13080;BME280;6606;49.154;9.280;2023-04-06T11:43:47;99825.81;;;14.93;28.07
13080;BME280;6606;49.154;9.280;2023-04-06T11:46:29;99815.13;;;14.93;29.51
13080;BME280;6606;49.154;9.280;2023-04-06T11:49:15;99822.22;;;15.07;28.38
13080;BME280;6606;49.154;9.280;2023-04-06T11:51:58;99817.19;;;15.03;28.45
13080;BME280;6606;49.154;9.280;2023-04-06T11:54:40;99817.31;;;14.74;27.39
13080;BME280;6606;49.154;9.280;2023-04-06T11:57:22;99813.09;;;15.24;27.28
13080;BME280;6606;49.154;9.280;2023-04-06T12:00:06;99811.44;;;15.09;27.01
13080;BME280;6606;49.154;9.280;2023-04-06T12:02:48;99805.72;;;14.88;26.98
13080;BME280;6606;49.154;9.280;2023-04-06T12:05:33;99810.38;;;14.84;28.26
13080;BME280;6606;49.154;9.280;2023-04-06T12:08:14;99805.47;;;14.78;26.81
13080;BME280;6606;49.154;9.280;2023-04-06T12:10:56;99809.41;;;14.72;28.26
13080;BME280;6606;49.154;9.280;2023-04-06T12:13:39;99798.81;;;14.29;27.75
13080;BME280;6606;49.154;9.280;2023-04-06T12:16:21;99802.50;;;14.13;26.53
13080;BME280;6606;49.154;9.280;2023-04-06T12:19:03;99805.16;;;14.56;27.40
13080;BME280;6606;49.154;9.280;2023-04-06T12:21:47;99796.03;;;15.00;26.68
13080;BME280;6606;49.154;9.280;2023-04-06T12:24:28;99795.16;;;15.39;27.45
13080;BME280;6606;49.154;9.280;2023-04-06T12:27:10;99790.19;;;15.86;27.15
13080;BME280;6606;49.154;9.280;2023-04-06T12:29:52;99785.03;;;16.08;26.77
13080;BME280;6606;49.154;9.280;2023-04-06T12:32:35;99791.84;;;15.35;27.55
13080;BME280;6606;49.154;9.280;2023-04-06T12:35:17;99784.06;;;15.32;27.37
13080;BME280;6606;49.154;9.280;2023-04-06T12:38:01;99784.34;;;15.15;27.07
13080;BME280;6606;49.154;9.280;2023-04-06T12:40:43;99786.66;;;15.59;28.40
13080;BME280;6606;49.154;9.280;2023-04-06T12:43:25;99787.31;;;15.89;25.43
13080;BME280;6606;49.154;9.280;2023-04-06T12:46:07;99784.84;;;15.98;25.41
13080;BME280;6606;49.154;9.280;2023-04-06T12:48:49;99773.59;;;16.06;27.11
13080;BME280;6606;49.154;9.280;2023-04-06T12:51:33;99778.88;;;16.32;26.02
13080;BME280;6606;49.154;9.280;2023-04-06T12:54:16;99774.28;;;16.34;27.72
13080;BME280;6606;49.154;9.280;2023-04-06T12:56:58;99776.50;;;16.40;26.58
13080;BME280;6606;49.154;9.280;2023-04-06T12:59:42;99767.47;;;16.54;25.95
13080;BME280;6606;49.154;9.280;2023-04-06T13:02:24;99772.09;;;16.76;25.35
13080;BME280;6606;49.154;9.280;2023-04-06T13:05:07;99768.41;;;16.89;25.28
13080;BME280;6606;49.154;9.280;2023-04-06T13:07:49;99766.22;;;16.83;24.44
13080;BME280;6606;49.154;9.280;2023-04-06T13:10:53;99759.66;;;16.75;24.27
13080;BME280;6606;49.154;9.280;2023-04-06T13:13:36;99751.72;;;15.88;25.61
13080;BME280;6606;49.154;9.280;2023-04-06T13:16:18;99758.81;;;16.74;26.22
13080;BME280;6606;49.154;9.280;2023-04-06T13:18:59;99752.72;;;16.11;26.20
13080;BME280;6606;49.154;9.280;2023-04-06T13:21:41;99753.31;;;15.78;26.34
13080;BME280;6606;49.154;9.280;2023-04-06T13:24:23;99749.22;;;15.34;27.11
13080;BME280;6606;49.154;9.280;2023-04-06T13:27:06;99746.88;;;14.89;27.67
13080;BME280;6606;49.154;9.280;2023-04-06T13:29:48;99749.63;;;15.15;27.92
13080;BME280;6606;49.154;9.280;2023-04-06T13:32:30;99746.44;;;15.99;26.40
13080;BME280;6606;49.154;9.280;2023-04-06T13:35:11;99745.59;;;15.99;26.23
13080;BME280;6606;49.154;9.280;2023-04-06T13:37:56;99744.88;;;15.71;26.37
13080;BME280;6606;49.154;9.280;2023-04-06T13:40:38;99739.34;;;16.48;25.65
13080;BME280;6606;49.154;9.280;2023-04-06T13:43:21;99736.38;;;16.64;26.28
13080;BME280;6606;49.154;9.280;2023-04-06T13:46:06;99731.53;;;16.45;25.29
13080;BME280;6606;49.154;9.280;2023-04-06T13:48:48;99731.09;;;16.99;25.02
13080;BME280;6606;49.154;9.280;2023-04-06T13:51:30;99732.81;;;17.00;25.02
13080;BME280;6606;49.154;9.280;2023-04-06T13:54:12;99733.03;;;16.97;26.56
13080;BME280;6606;49.154;9.280;2023-04-06T13:56:54;99732.69;;;16.54;24.55
13080;BME280;6606;49.154;9.280;2023-04-06T13:59:38;99726.09;;;16.22;25.58
13080;BME280;6606;49.154;9.280;2023-04-06T14:02:20;99727.31;;;16.54;26.37
13080;BME280;6606;49.154;9.280;2023-04-06T14:05:08;99736.34;;;16.16;27.25
13080;BME280;6606;49.154;9.280;2023-04-06T14:07:50;99732.69;;;15.80;25.91
13080;BME280;6606;49.154;9.280;2023-04-06T14:10:36;99727.66;;;15.88;27.74
13080;BME280;6606;49.154;9.280;2023-04-06T14:13:18;99724.28;;;16.10;26.91
13080;BME280;6606;49.154;9.280;2023-04-06T14:16:02;99725.25;;;16.09;27.27
13080;BME280;6606;49.154;9.280;2023-04-06T14:18:44;99721.34;;;15.89;26.24
13080;BME280;6606;49.154;9.280;2023-04-06T14:21:26;99730.34;;;16.25;26.75
13080;BME280;6606;49.154;9.280;2023-04-06T14:24:08;99722.16;;;16.39;24.64
13080;BME280;6606;49.154;9.280;2023-04-06T14:26:50;99717.22;;;16.94;26.03
13080;BME280;6606;49.154;9.280;2023-04-06T14:29:32;99710.47;;;17.35;25.66
13080;BME280;6606;49.154;9.280;2023-04-06T14:32:15;99716.72;;;17.58;25.38
13080;BME280;6606;49.154;9.280;2023-04-06T14:34:57;99719.75;;;16.23;25.43
13080;BME280;6606;49.154;9.280;2023-04-06T14:37:39;99714.81;;;16.54;25.65